Latest Weather Observations for Bendigo

IDV60801

Issued at 7:05 am EDT Saturday 22 November 2014 (issued every 30 minutes, with the page automatically refreshed every 10 minutes)

About weather observations | Map of weather stations | Latest weather observations for VIC | Other Formats
Station Details ID: 081123 Name: BENDIGO AIRPORT Lat: -36.74 Lon: 144.33 Height: 208.0 m
Data from the previous 72 hours. | See also: Recent months at Bendigo
Date/Time
EDT
Temp
°C
App
Temp
°C
Dew
Point
Rel
Hum
%
Delta-T
°C
Wind Press
QNH
hPa
Press
MSL
hPa
Rain
since 9 am
mm
Dir
 
Spd
km/h
Gust
km/h
Spd
kts
Gust
kts
22/07:00am 13.4 11.9 9.1 75 2.2 SSE 7 13 4 7 1011.0 1010.6 0.0
22/06:30am 11.0 9.0 7.1 77 1.9 SSE 7 11 4 6 1011.1 1010.7 0.0
22/06:00am 8.8 7.9 5.9 82 1.3 S 0 0 0 0 1010.7 1010.3 0.0
22/05:30am 9.8 9.0 6.3 79 1.6 CALM 0 0 0 0 1010.5 1010.1 0.0
22/05:00am 10.3 8.8 6.6 78 1.8 S 4 6 2 3 1010.4 1010.0 0.0
22/04:30am 10.0 8.8 6.5 79 1.7 S 2 6 1 3 1010.2 1009.8 0.0
22/04:00am 9.8 9.0 6.3 79 1.6 S 0 0 0 0 1010.1 1009.7 0.0
22/03:30am 10.8 10.0 6.4 74 2.1 CALM 0 0 0 0 1010.2 1009.8 0.0
22/03:00am 10.2 8.2 6.2 76 1.9 S 6 9 3 5 1010.2 1009.8 0.0
22/02:30am 10.8 9.9 6.2 73 2.2 CALM 0 0 0 0 1010.6 1010.2 0.0
22/02:00am 12.5 11.7 6.3 66 3.0 CALM 0 0 0 0 1010.8 1010.4 0.0
22/01:30am 14.4 12.5 6.7 60 3.8 S 6 6 3 3 1011.2 1010.8 0.0
22/01:14am 14.8 12.9 6.6 58 4.0 SSE 6 7 3 4 1011.3 1010.9 0.0
22/01:00am 15.0 12.9 6.6 57 4.1 SSE 7 11 4 6 1011.4 1011.0 0.0
22/12:55am 14.9 12.9 7.0 59 3.9 SSE 7 9 4 5 1011.5 1011.1 0.0
22/12:30am 15.2 13.2 6.2 55 4.4 SSE 6 7 3 4 1011.6 1011.2 0.0
22/12:00am 16.8 15.5 6.0 49 5.3 S 2 7 1 4 1012.0 1011.5 0.0
 
Date/Time
EDT
Temp
°C
App
Temp
°C
Dew
Point
Rel
Hum
%
Delta-T
°C
Wind Press
QNH
hPa
Press
MSL
hPa
Rain
since 9 am
mm
Dir
 
Spd
km/h
Gust
km/h
Spd
kts
Gust
kts
21/11:30pm 16.5 13.8 5.5 48 5.3 SSE 9 11 5 6 1012.0 1011.5 0.0
21/11:00pm 15.6 14.5 5.2 50 5.0 CALM 0 0 0 0 1012.0 1011.5 0.0
21/10:30pm 19.5 18.1 3.6 35 7.6 CALM 0 0 0 0 1012.0 1011.5 0.0
21/10:00pm 21.1 18.3 3.3 31 8.6 W 7 9 4 5 1011.9 1011.4 0.0
21/09:30pm 21.7 18.0 4.3 32 8.6 W 13 19 7 10 1011.5 1011.1 0.0
21/09:00pm 18.6 17.9 6.8 46 6.0 CALM 0 0 0 0 1011.0 1010.6 0.0
21/08:30pm 19.7 19.0 6.8 43 6.6 SSE 0 0 0 0 1010.7 1010.3 0.0
21/08:00pm 24.0 23.0 5.4 30 9.5 CALM 0 0 0 0 1010.3 1009.9 0.0
21/07:30pm 25.6 23.8 5.2 27 10.5 W 4 11 2 6 1010.0 1009.6 0.0
21/07:00pm 25.4 23.9 5.1 27 10.4 NNW 2 6 1 3 1009.8 1009.4 0.0
21/06:30pm 26.1 23.3 5.1 26 10.8 W 9 15 5 8 1009.6 1009.2 0.0
21/06:00pm 25.8 23.9 4.9 26 10.7 WNW 4 13 2 7 1009.5 1009.1 0.0
21/05:30pm 25.7 21.3 4.8 26 10.7 WNW 17 24 9 13 1009.5 1009.1 0.0
21/05:00pm 25.3 21.9 3.9 25 10.7 WSW 11 20 6 11 1009.5 1009.1 0.0
21/04:30pm 25.7 23.7 4.2 25 10.8 NW 4 17 2 9 1009.7 1009.3 0.0
21/04:00pm 24.8 22.2 4.0 26 10.4 S 7 15 4 8 1010.1 1009.7 0.0
21/03:30pm 25.0 20.9 4.2 26 10.4 W 15 26 8 14 1010.3 1009.9 0.0
21/03:00pm 25.1 21.0 4.3 26 10.5 SW 15 28 8 15 1010.6 1010.2 0.0
21/02:30pm 23.6 21.1 4.5 29 9.6 SW 7 17 4 9 1010.6 1010.2 0.0
21/02:00pm 22.8 19.8 3.9 29 9.3 SW 9 20 5 11 1010.8 1010.4 0.0
21/01:30pm 22.5 19.1 5.9 34 8.5 SSW 13 26 7 14 1011.1 1010.7 0.0
21/01:00pm 22.3 16.9 4.4 31 8.9 W 22 30 12 16 1011.2 1010.8 0.0
21/12:30pm 21.9 18.7 8.4 42 7.2 SSW 15 26 8 14 1011.3 1010.9 0.0
21/12:00pm 21.0 18.4 7.6 42 7.0 WSW 11 20 6 11 1011.4 1011.0 0.0
21/11:30am 20.5 17.7 8.5 46 6.3 SSW 13 26 7 14 1011.4 1011.0 0.0
21/11:00am 20.1 17.5 9.4 50 5.7 WSW 13 19 7 10 1011.3 1010.9 0.0
21/10:30am 19.1 17.0 9.9 55 5.0 SSW 11 22 6 12 1011.1 1010.7 0.0
21/10:00am 19.3 16.3 10.6 57 4.8 SSW 17 26 9 14 1011.0 1010.6 0.0
21/09:30am 17.3 13.8 10.2 63 3.8 SW 19 28 10 15 1011.2 1010.8 0.0
21/09:00am 17.3 14.5 11.3 68 3.3 SSW 17 26 9 14 1011.0 1010.6 0.2
21/08:30am 17.1 14.0 12.2 73 2.7 SW 20 30 11 16 1011.0 1010.6 0.2
21/08:00am 16.4 14.6 12.2 76 2.3 SSW 13 20 7 11 1010.2 1009.8 0.2
21/07:30am 16.2 13.5 11.8 75 2.4 SSW 17 28 9 15 1009.4 1009.0 0.2
21/07:00am 15.6 14.5 12.0 79 2.0 SSW 9 15 5 8 1009.2 1008.8 0.2
21/06:30am 14.9 13.0 11.7 81 1.7 SSW 13 20 7 11 1008.6 1008.2 0.2
21/06:00am 15.3 13.2 12.4 83 1.6 SW 15 24 8 13 1008.5 1008.1 0.2
21/05:56am 15.5 13.1 12.8 84 1.5 SW 17 30 9 16 1008.4 1008.0 0.2
21/05:30am 16.4 15.3 14.4 88 1.2 SW 13 20 7 11 1008.0 1007.5 0.2
21/05:00am 15.8 14.6 14.0 89 1.0 W 13 19 7 10 1007.5 1007.0 0.2
21/04:30am 15.9 14.4 14.3 90 0.9 W 15 20 8 11 1006.9 1006.4 0.2
21/04:00am 16.2 15.2 14.7 91 0.9 WNW 13 19 7 10 1006.3 1005.9 0.2
21/03:30am 16.9 16.1 15.1 89 1.1 W 13 17 7 9 1006.1 1005.7 0.2
21/03:00am 17.3 16.5 15.1 87 1.3 W 13 17 7 9 1006.1 1005.7 0.2
21/02:30am 14.8 16.0 13.8 94 0.6 CALM 0 0 0 0 1006.2 1005.8 0.2
21/02:00am 15.5 16.7 13.7 89 1.0 CALM 0 0 0 0 1006.1 1005.7 0.2
21/01:30am 16.1 17.7 14.8 92 0.8 CALM 0 0 0 0 1006.4 1006.0 0.2
21/01:00am 15.8 17.2 14.5 92 0.8 CALM 0 0 0 0 1006.8 1006.3 0.2
21/12:30am 16.6 17.8 13.7 83 1.7 CALM 0 0 0 0 1007.2 1006.7 0.2
21/12:00am 18.5 20.3 15.4 82 1.8 CALM 0 0 0 0 1007.3 1006.8 0.2
 
Date/Time
EDT
Temp
°C
App
Temp
°C
Dew
Point
Rel
Hum
%
Delta-T
°C
Wind Press
QNH
hPa
Press
MSL
hPa
Rain
since 9 am
mm
Dir
 
Spd
km/h
Gust
km/h
Spd
kts
Gust
kts
20/11:30pm 19.0 20.1 15.7 81 2.0 N 4 7 2 4 1007.7 1007.2 0.2
20/11:00pm 19.2 20.4 14.9 76 2.5 W 2 9 1 5 1007.7 1007.2 0.2
20/10:30pm 19.1 20.5 15.4 79 2.2 N 2 9 1 5 1007.7 1007.2 0.2
20/10:00pm 20.3 20.7 14.7 70 3.3 NNW 6 11 3 6 1007.5 1007.0 0.2
20/09:30pm 20.4 20.2 14.7 70 3.4 NW 9 15 5 8 1007.6 1007.1 0.2
20/09:00pm 20.3 19.5 15.1 72 3.1 N 13 20 7 11 1007.9 1007.4 0.2
20/08:30pm 19.9 18.4 15.3 75 2.7 NW 17 26 9 14 1008.1 1007.6 0.2
20/08:01pm 21.8 17.7 13.9 61 4.6 NW 28 46 15 25 1008.2 1007.8 0.0
20/08:00pm 21.8 17.7 13.9 61 4.6 NW 28 43 15 23 1008.3 1007.9 0.0
20/07:37pm 22.2 17.0 13.5 57 5.1 WNW 33 52 18 28 1007.9 1007.4 0.0
20/07:30pm 22.6 17.4 13.4 56 5.4 WNW 33 48 18 26 1007.9 1007.4 0.0
20/07:22pm 22.8 18.4 13.0 54 5.7 NW 28 46 15 25 1007.8 1007.3 0.0
20/07:00pm 23.0 20.1 12.9 53 5.9 WNW 20 35 11 19 1007.8 1007.3 0.0
20/06:30pm 23.0 20.9 13.5 55 5.6 W 17 28 9 15 1007.9 1007.4 0.0
20/06:00pm 23.6 20.0 12.9 51 6.2 W 24 37 13 20 1008.0 1007.5 0.0
20/05:30pm 25.0 19.9 11.9 44 7.5 W 30 43 16 23 1007.8 1007.3 0.0
20/05:06pm 26.3 20.9 10.9 38 8.8 W 30 48 16 26 1007.2 1006.7 0.0
20/05:00pm 26.6 21.0 10.3 36 9.2 W 30 44 16 24 1007.0 1006.5 0.0
20/04:58pm 26.7 21.7 10.8 37 9.0 W 28 44 15 24 1007.0 1006.5 0.0
20/04:30pm 27.1 24.3 11.2 37 9.1 WSW 17 26 9 14 1006.4 1006.0 0.0
20/04:00pm 26.7 22.8 12.0 40 8.6 WSW 24 32 13 17 1006.4 1006.0 0.0
20/03:30pm 27.6 22.0 11.6 37 9.3 W 32 43 17 23 1007.2 1006.7 0.0
20/03:00pm 28.1 22.2 10.3 33 10.1 W 32 44 17 24 1006.8 1006.3 0.0
20/02:30pm 30.5 24.5 3.5 18 13.9 NW 24 33 13 18 1005.9 1005.5 0.0
20/02:00pm 31.2 25.2 3.3 17 14.4 NW 24 32 13 17 1005.6 1005.2 0.0
20/01:30pm 31.4 25.3 2.6 16 14.6 NW 24 37 13 20 1005.8 1005.4 0.0
20/01:00pm 31.7 24.1 2.8 16 14.8 NW 32 46 17 25 1006.2 1005.8 0.0
20/12:41pm 31.5 24.6 2.7 16 14.7 NW 28 57 15 31 1006.5 1006.1 0.0
20/12:30pm 31.6 25.9 2.7 16 14.7 NNW 22 35 12 19 1006.5 1006.1 0.0
20/12:00pm 31.5 25.8 2.7 16 14.7 NNW 22 35 12 19 1006.9 1006.4 0.0
20/11:30am 31.0 23.7 2.3 16 14.5 N 30 41 16 22 1007.5 1007.0 0.0
20/11:00am 30.3 24.2 2.5 17 14.0 N 24 35 13 19 1007.9 1007.4 0.0
20/10:30am 27.6 23.4 4.0 22 12.0 NNE 15 24 8 13 1008.5 1008.1 0.0
20/10:00am 25.0 21.0 4.7 27 10.3 NNE 15 20 8 11 1008.9 1008.5 0.0
20/09:30am 24.0 20.6 5.8 31 9.3 NE 13 19 7 10 1009.3 1008.9 0.0
20/09:00am 22.0 19.8 6.3 36 8.1 E 7 11 4 6 1009.8 1009.4 0.0
20/08:30am 20.9 18.7 6.4 39 7.4 E 7 11 4 6 1010.1 1009.7 0.0
20/08:00am 19.7 17.0 5.7 40 7.0 E 9 13 5 7 1010.0 1009.6 0.0
20/07:30am 19.2 15.7 5.6 41 6.7 ENE 13 17 7 9 1010.1 1009.7 0.0
20/07:00am 18.8 15.8 6.0 43 6.4 NE 11 20 6 11 1009.8 1009.4 0.0
20/06:30am 15.4 13.2 7.7 60 3.9 SE 9 13 5 7 1010.1 1009.7 0.0
20/06:00am 14.9 12.5 7.0 59 3.9 SE 9 9 5 5 1009.7 1009.3 0.0
20/05:30am 15.1 14.5 7.2 59 3.9 CALM 0 0 0 0 1009.6 1009.2 0.0
20/05:00am 14.6 13.9 6.9 60 3.8 CALM 0 0 0 0 1009.5 1009.1 0.0
20/04:30am 16.4 15.8 7.3 55 4.6 CALM 0 6 0 3 1009.7 1009.3 0.0
20/04:00am 15.0 14.4 7.3 60 3.8 CALM 0 0 0 0 1009.7 1009.3 0.0
20/03:30am 15.4 14.8 7.2 58 4.1 CALM 0 0 0 0 1009.9 1009.5 0.0
20/03:00am 15.7 15.1 7.5 58 4.1 CALM 0 0 0 0 1010.1 1009.7 0.0
20/02:30am 15.6 15.2 8.4 62 3.7 CALM 0 0 0 0 1010.4 1010.0 0.0
20/02:00am 15.0 14.4 7.3 60 3.8 CALM 0 0 0 0 1010.4 1010.0 0.0
20/01:30am 14.4 13.6 6.5 59 3.9 CALM 0 0 0 0 1010.7 1010.3 0.0
20/01:00am 14.5 13.7 6.6 59 3.9 CALM 0 0 0 0 1011.3 1010.9 0.0
20/12:30am 14.1 13.1 5.7 57 4.0 CALM 0 0 0 0 1011.6 1011.2 0.0
20/12:00am 14.8 14.0 6.4 57 4.1 CALM 0 0 0 0 1012.1 1011.6 0.0
 
Date/Time
EDT
Temp
°C
App
Temp
°C
Dew
Point
Rel
Hum
%
Delta-T
°C
Wind Press
QNH
hPa
Press
MSL
hPa
Rain
since 9 am
mm
Dir
 
Spd
km/h
Gust
km/h
Spd
kts
Gust
kts
19/11:30pm 15.3 14.5 6.3 55 4.4 CALM 0 0 0 0 1012.3 1011.9 0.0
19/11:00pm 16.2 15.4 6.6 53 4.8 CALM 0 0 0 0 1012.5 1012.1 0.0
19/10:30pm 15.7 14.9 6.4 54 4.6 CALM 0 0 0 0 1012.9 1012.5 0.0
19/10:00pm 16.6 15.7 5.9 49 5.2 CALM 0 0 0 0 1012.7 1012.3 0.0
19/09:30pm 16.8 15.9 6.0 49 5.3 CALM 0 0 0 0 1012.9 1012.5 0.0
19/09:00pm 18.1 17.2 6.0 45 6.0 CALM 0 0 0 0 1012.6 1012.2 0.0
19/08:30pm 21.9 20.8 4.9 33 8.5 CALM 0 4 0 2 1012.7 1012.3 0.0
19/08:00pm 24.6 21.5 3.8 26 10.3 N 9 11 5 6 1012.7 1012.3 0.0
19/07:30pm 26.2 22.9 2.2 21 11.7 N 9 13 5 7 1012.8 1012.4 0.0
19/07:00pm 27.5 24.3 3.2 21 12.2 NNW 9 19 5 10 1012.8 1012.4 0.0
19/06:30pm 27.2 23.1 2.3 20 12.3 NNW 13 19 7 10 1012.7 1012.3 0.0
19/06:00pm 27.9 23.8 2.2 19 12.7 NW 13 24 7 13 1013.0 1012.6 0.0
19/05:30pm 27.0 21.5 2.1 20 12.2 NNW 20 32 11 17 1013.3 1012.9 0.0
19/05:00pm 27.5 23.6 3.2 21 12.2 NNW 13 20 7 11 1013.5 1013.1 0.0
19/04:30pm 26.7 21.9 2.6 21 11.9 NNW 17 24 9 13 1014.2 1013.8 0.0
19/04:00pm 26.7 22.5 3.9 23 11.5 N 15 28 8 15 1014.3 1013.9 0.0
19/03:30pm 26.3 22.4 3.5 23 11.4 NW 13 22 7 12 1014.7 1014.3 0.0
19/03:00pm 27.1 22.0 4.2 23 11.6 NW 20 26 11 14 1015.3 1014.9 0.0
19/02:30pm 26.6 22.2 5.0 25 11.1 WNW 17 19 9 10 1015.7 1015.3 0.0
19/02:00pm 25.8 21.0 4.9 26 10.7 N 19 30 10 16 1016.0 1015.6 0.0
19/01:30pm 25.3 20.9 5.0 27 10.4 N 17 28 9 15 1016.3 1015.9 0.0
19/01:00pm 24.3 20.3 5.1 29 9.7 N 15 28 8 15 1017.0 1016.6 0.0
19/12:30pm 24.4 19.8 5.7 30 9.6 WNW 19 26 10 14 1017.8 1017.4 0.0
19/12:00pm 24.0 19.5 6.3 32 9.2 NW 19 26 10 14 1018.1 1017.7 0.0
19/11:30am 22.9 20.0 8.2 39 7.8 NNE 13 28 7 15 1018.4 1018.0 0.0
19/11:00am 21.9 19.7 7.7 40 7.4 NNW 9 15 5 8 1018.9 1018.5 0.0
19/10:30am 20.4 18.3 8.4 46 6.3 NNW 9 17 5 9 1019.2 1018.8 0.0
19/10:00am 19.7 19.1 9.0 50 5.7 SSW 2 9 1 5 1019.4 1019.0 0.0
19/09:30am 18.7 17.9 9.5 55 4.9 NE 4 9 2 5 1019.4 1019.0 0.0
19/09:00am 16.8 15.9 9.2 61 4.0 ESE 4 11 2 6 1019.5 1019.1 0.0
19/08:30am 15.5 14.1 9.4 67 3.2 ESE 7 9 4 5 1019.7 1019.3 0.0
19/08:00am 14.1 12.3 9.5 74 2.4 SE 9 13 5 7 1019.5 1019.1 0.0
19/07:30am 12.1 10.5 8.9 81 1.6 SE 7 13 4 7 1019.4 1019.0 0.0

Other Formats:

Comma delimited format used in spreadsheet applications
http://www.bom.gov.au/fwo/IDV60801/IDV60801.94855.axf

JavaScript Object Notation format (JSON) in row-major order
http://www.bom.gov.au/fwo/IDV60801/IDV60801.94855.json